AREA preflight bulletin
Updated "live" 20 Jul 2019, 01:49

back to the map




METAR og TAF


KANGERLUSSUAQ
  AKTUEL BGSF 200050Z 05007KT 9999 -RA SCT070 OVC150 09/05 Q1013=
  TAF 24 timer BGSF 192252Z 2000/2106 VRB08KT 9999 FEW060 BKN120 TEMPO 2000/2012 -RA BKN020 TEMPO 2012/2106 BKN060=

SISIMIUT
  AKTUEL BGSS 200120Z AUTO 12003KT 9999NDV FEW100/// BKN130/// 09/06 Q1013=
  TAF 9 timer BGSS 191506Z 1915/1917 09006KT 9999 SCT008 BKN010 TEMPO 1915/1917 BKN006=

MANIITSOQ
  AKTUEL BGMQ 200120Z AUTO 25003KT 9999NDV FEW100/// BKN150/// 06/06 Q1013=
  TAF 9 timer BGMQ 191857Z 1918/1921 15005KT 9999 SCT080 BKN120 TEMPO 1919/1921 BKN080=

NUUK
  AKTUEL BGGH 200050Z 19004KT 9999 FEW150 BKN220 07/06 Q1013=
  TAF 9 timer BGGH 192314Z 2000/2006 20006KT 9999 FEW015 BKN150 TEMPO 2000/2006 BKN004=

ILULISSAT
  AKTUEL BGJN 200050Z 20001KT 9999 FEW040 BKN190 09/06 Q1012=
  TAF 9 timer BGJN 192314Z 2000/2006 VRB06KT 9999 SCT050 TEMPO 2000/2006 BKN035=

AASIAAT
  AKTUEL BGAA 200120Z AUTO VRB04KT 9999NDV OVC048/// 09/06 Q1012=
  TAF 9 timer BGAA 191506Z 1915/1917 16006KT 9999 -RA SCT004 BKN025 TEMPO 1915/1917 4000 RADZ BKN004=


SIGMETS:

Ingen SIGMET fundet:

NOTAM/SNOWTAM for operationel use has to be confirmed with the
nearest AIS Briefing Office prior to a flight.

ICAO
BGSF (KANGERLUSSUAQ)

FIR
BGGL

Notam_id:
BGA0314/19

valid from:
1908150000

E) TRIGGER NOTAM - PERM AIP AIRAC AMDT 05/19 WEF 15 AUG 2019. NEW REMARK CONCERNING PCN.

valid to:
1908282359




ICAO
BGSS (SISIMIUT)

FIR
BGGL

Notam_id:
BGB0207/19

valid from:
1904011135

E) BGSS AFIS FREQ 118,100 MHZ NO COVERAGE IN SECTOR BETWEEN 280 MAG AND 110 MAG BELOW 7000FT.

valid to:
1908311700




ICAO
BGMQ (MANIITSOQ)

FIR
BGGL

Notam_id:
BGB0433/19

valid from:
1906170912

E) DEWPOINT IS PERIODICALLY OUT OF SERVICE.

valid to:
1908171715




ICAO
BGGH (NUUK)

FIR
BGGL

Notam_id:
BGB0070/19

valid from:
1901311908

E) BGGH AFIS FREQ 119.100 MHZ NO COVERAGE IN SECTOR BETWEEN 060 DEG MAG AND 210 DEG MAG BELOW FL100.

valid to:
1907311900EST


Replacing:
BGB0786/18

ICAO
BGGH (NUUK)

FIR
BGGL

Notam_id:
BGB0499/19

valid from:
1907111317

E) ERROR IN CHART FOR RNAV (GNSS) APPROACH RWY 23. WITH REF AIP GREENLAND AD 2-BGGH RNAV (GNSS) RWY 23-1. NEW OCA(H) LNAV/VNAV CLIMB 2.5 PERCENT CAT A TO READ 1310 (1029) INSTEAD OF 1230. NEW OCA(H) LNAV/VNAV CLIMB 2.5 PERCENT CAT B TO READ 1340 (1059) INSTEAD OF 1250. NEW OCA(H) LNAV/VNAV CLIMB 5.0 PERCENT CAT A TO READ 1300 (1019) INSTEAD OF 1070. NEW OCA(H) LNAV/VNAV CLIMB 5.0 PERCENT CAT B TO READ 1320 (1039) INSTEAD OF 1110. NEW OCA(H) LNAV CLIMB 5.0 PERCENT CAT A TO READ 1150 (869) IN-STEAD OF 1130. NEW OCA(H) LNAV CLIMB 5.0 PERCENT CAT B TO READ 1240 (959) INSTEAD OF 1230.

valid to:
1909112359


Replacing:
BGB0930/17

ICAO
BGGH (NUUK)

FIR
BGGL

Notam_id:
BGB0502/19

valid from:
1907151323

E) PAPI RWY 05 LEFT SIDE SHOWING INCORRECT ANGLE.

valid to:
1907291400EST


Replacing:
BGB0475/19

ICAO
BGGH (NUUK)

FIR
BGGL

Notam_id:
BGB0446/19

valid from:
1906241209

E) STAND 3 AND 4 CAN NOT RUN 2 HEATERS SIMULTANEOUSLY WHILE RUNNING 2 GPU'S.

valid to:
1908011200EST


Replacing:
BGB0444/19

ICAO
BGGH (NUUK)

FIR
BGGL

Notam_id:
BGB0358/19

valid from:
1905151005

E) FIREFIGHTING AND RESCUE LIMITED TO: CAT5 PPR 3 HR BEFORE LANDING OR DEPARTURE FOR ALL TRAFFIC OVER 10 TONS AND ABOVE 19 PASSENGERS, EXCEPT SCHEDULED TRAFFIC.

valid to:
PERM


Replacing:
BGB0350/19

ICAO
BGGH (NUUK)

FIR
BGGL

Notam_id:
BGB0503/19

valid from:
1909120000

E) TRIGGER NOTAM - PERM AIP AIRAC AMDT 06/19 WEF 12 SEP 2019. IAC RNAV (GNSS) RWY 23 RENAMED TO RNP RWY 23 AND PROCEDURE UPDATED (E.G. VARIATION CHANGED, WAYPOINTS GHT23 AND GHM23 WITHDRAWN, NEW WAYPOINTS ADDED.).

valid to:
1909252359




ICAO
BGGH (NUUK)

FIR
BGGL

Notam_id:
BGB0448/19

valid from:
1908150000

E) TRIGGER NOTAM - PERM AIP AIRAC AMDT 05/19 WEF 15 AUG 2019. CHANGES TO RESCUE AND FIRE FIGHTING SERVICE.

valid to:
1908282359




ICAO
BGJN (ILULISSAT)

FIR
BGGL

Notam_id:
BGB0496/19

valid from:
1907100834

E) EVERY SECOND APCH LIGHT RWY 07/25 OUT OF SERVICE.

valid to:
1909301900




ICAO
BGGL (SONDRESTROM FIR)

FIR
BGGL

Notam_id:
BGA0333/19

valid from:
1907010453

E) CHECKLIST YEAR=2017 0269 YEAR=2018 0199 YEAR=2019 0264 0282 0302 0313 0314 0316 0323 0329 0330 LATEST PUBLICATIONS AIP AIRAC AMDT IFR 005/2019 EFFECTIVE DATE 15 AUG 19 AIP AMDT IFR 003/2018 EFFECTIVE DATE 15 MAR 18 AIP SUP IFR 001/2019 EFFECTIVE DATE 06 JUN 19 AIC IFR A001/2019 EFFECTIVE DATE 17 JAN 19

valid to:
1908010453EST


Replacing:
BGA0278/19

ICAO
BGGL (SONDRESTROM FIR)

FIR
BGGL

Notam_id:
BGB0467/19

valid from:
1907010453

E) CHECKLIST YEAR=2017 0740 0930 YEAR=2018 0806 0811 YEAR=2019 0070 0145 0195 0207 0214 0243 0298 0299 0358 0394 0407 0416 0419 0433 0434 0435 0436 0437 0438 0446 0448 0450 0454 0460 0462 LATEST PUBLICATIONS AIP AIRAC AMDT IFR 005/2019 EFFECTIVE DATE 15 AUG 19 AIP AMDT IFR 003/2018 EFFECTIVE DATE 15 MAR 18 AIP SUP IFR 001/2019 EFFECTIVE DATE 06 JUN 19 AIC IFR A001/2019 EFFECTIVE DATE 17 JAN 19

valid to:
1908010453EST


Replacing:
BGB0405/19

ICAO
BGGL (SONDRESTROM FIR)

FIR
BGGL

Notam_id:
BGC0060/19

valid from:
1907010453

E) CHECKLIST YEAR=2018 0079 0081 YEAR=2019 0014 0015 0016 0017 0045 0046 0047 0049 0050 0051 0059 LATEST PUBLICATIONS AIP AIRAC AMDT IFR 005/2019 EFFECTIVE DATE 15 AUG 19 AIP AMDT IFR 003/2018 EFFECTIVE DATE 15 MAR 18 AIP SUP IFR 001/2019 EFFECTIVE DATE 06 JUN 19 AIC IFR A001/2019 EFFECTIVE DATE 17 JAN 19

valid to:
1908010453EST


Replacing:
BGC0053/19

ICAO
BGGL (SONDRESTROM FIR)

FIR
BGGL

Notam_id:
BGB0488/19

valid from:
1907072213

D) DAILY 0800-2200


E) TEMPORARY RESTRICTED AREA DUE TO DRONE ACTIVITY ACTIVATED. REF AIP SUP 01/19 PUBLISHED 06 JUN 2019. LATERAL LIMITS: 7551N03654W 7551N03506W 7524N03506W 7524N03654W. F) GND G) 14500FT AMSL

valid to:
1908092200


Replacing:
BGB0419/19

ICAO
BGGL (SONDRESTROM FIR)

FIR
BGGL

Notam_id:
BGA0363/19

valid from:
1909120000

E) TRIGGER NOTAM - PERM AIP AIRAC AMDT 06/19 WEF 12 SEP 2019. REF ENR 4.5: ABN KANGERSUATSIAQ ADDED AND CHANGES IN LOCATION/REMARKS AT SEVERAL ABN.

valid to:
1909252359




ICAO
BGGL (SONDRESTROM FIR)

FIR
BGGL

Notam_id:
BGA0199/18

valid from:
1805310935

E) GREENLAND AND ADJACENT WATERS ARE CONSIDERED HOSTILE AREAS BY THE CIVIL AVIATION AUTHORITY (TBST). THREE MAJOR REASONS CONTRIBUTE TO DEFINING THE AREA AS HOSTILE: A SAFE FORCED LANDING CANNOT BE ACCOMPLISHED BECAUSE THE SURFACE IS INADEQUATE. THE HELICOPTER OCCUPANTS CANNOT BE ADEQUATELY PROTECTED FROM THE ELEMENTS. SEARCH AND RESCUE RESPONSE/CAPABILITY ARE NOT PROVIDED CONSISTENT WITH ANTICIPATED EXPOSURE.

valid to:
PERM




ICAO
BGAA (AASIAAT)

FIR
BGGL

Notam_id:
BGA0269/17

valid from:
1706081136

D) DAILY 1100-1115 2300-2315


E) ASCENT OR WEATHER BALLOON TAKES PLACE TWICE A DAY 1100-1115 AND 2300-2315. POSN 684201N0525105W LOCATED WEST OF THE AIRPORT AT A DISTANCE OF APPROX 3 KM. THE BALLOON CAN RISE TO A HEIGHT OF UP TO 35 KM. REF AIP GREENLAND AD 2 - BGAA - 4. F) SFC G) FL999

valid to:
PERM





Copyright Naviair   2003-2016